sensor_id;sensor_type;location;lat;lon;timestamp;pressure;altitude;pressure_sealevel;temperature
6550;BMP280;15142;48.888;9.134;2023-03-23T00:00:59;97490.44;;;13.85
6550;BMP280;15142;48.888;9.134;2023-03-23T00:03:26;97490.19;;;13.98
6550;BMP280;15142;48.888;9.134;2023-03-23T00:05:54;97483.41;;;14.02
6550;BMP280;15142;48.888;9.134;2023-03-23T00:08:28;97486.25;;;14.09
6550;BMP280;15142;48.888;9.134;2023-03-23T00:10:55;97494.41;;;14.02
6550;BMP280;15142;48.888;9.134;2023-03-23T00:13:25;97491.72;;;13.99
6550;BMP280;15142;48.888;9.134;2023-03-23T00:15:52;97493.06;;;14.05
6550;BMP280;15142;48.888;9.134;2023-03-23T00:18:19;97486.69;;;14.11
6550;BMP280;15142;48.888;9.134;2023-03-23T00:20:50;97485.16;;;14.10
6550;BMP280;15142;48.888;9.134;2023-03-23T00:23:18;97485.44;;;14.25
6550;BMP280;15142;48.888;9.134;2023-03-23T00:25:46;97484.94;;;14.31
6550;BMP280;15142;48.888;9.134;2023-03-23T00:28:14;97481.56;;;14.39
6550;BMP280;15142;48.888;9.134;2023-03-23T00:30:45;97474.75;;;14.43
6550;BMP280;15142;48.888;9.134;2023-03-23T00:33:12;97463.41;;;14.44
6550;BMP280;15142;48.888;9.134;2023-03-23T00:35:42;97462.97;;;14.42
6550;BMP280;15142;48.888;9.134;2023-03-23T00:38:10;97462.06;;;14.38
6550;BMP280;15142;48.888;9.134;2023-03-23T00:40:37;97461.31;;;14.38
6550;BMP280;15142;48.888;9.134;2023-03-23T00:43:04;97445.78;;;14.43
6550;BMP280;15142;48.888;9.134;2023-03-23T00:45:31;97443.88;;;14.52
6550;BMP280;15142;48.888;9.134;2023-03-23T00:47:59;97445.41;;;14.53
6550;BMP280;15142;48.888;9.134;2023-03-23T00:50:30;97449.16;;;14.55
6550;BMP280;15142;48.888;9.134;2023-03-23T00:52:57;97452.91;;;14.58
6550;BMP280;15142;48.888;9.134;2023-03-23T00:55:24;97440.38;;;14.56
6550;BMP280;15142;48.888;9.134;2023-03-23T00:57:51;97445.25;;;14.49
6550;BMP280;15142;48.888;9.134;2023-03-23T01:00:19;97432.59;;;14.44
6550;BMP280;15142;48.888;9.134;2023-03-23T01:02:46;97438.38;;;14.41
6550;BMP280;15142;48.888;9.134;2023-03-23T01:05:14;97435.34;;;14.39
6550;BMP280;15142;48.888;9.134;2023-03-23T01:07:41;97432.50;;;14.41
6550;BMP280;15142;48.888;9.134;2023-03-23T01:10:11;97423.56;;;14.38
6550;BMP280;15142;48.888;9.134;2023-03-23T01:12:42;97424.22;;;14.35
6550;BMP280;15142;48.888;9.134;2023-03-23T01:15:13;97425.00;;;14.28
6550;BMP280;15142;48.888;9.134;2023-03-23T01:17:41;97426.19;;;14.30
6550;BMP280;15142;48.888;9.134;2023-03-23T01:20:08;97426.19;;;14.30
6550;BMP280;15142;48.888;9.134;2023-03-23T01:22:38;97426.06;;;14.27
6550;BMP280;15142;48.888;9.134;2023-03-23T01:25:07;97433.34;;;14.25
6550;BMP280;15142;48.888;9.134;2023-03-23T01:27:35;97429.56;;;14.22
6550;BMP280;15142;48.888;9.134;2023-03-23T01:30:02;97427.00;;;14.22
6550;BMP280;15142;48.888;9.134;2023-03-23T01:32:29;97424.56;;;14.26
6550;BMP280;15142;48.888;9.134;2023-03-23T01:34:56;97421.56;;;14.24
6550;BMP280;15142;48.888;9.134;2023-03-23T01:37:23;97422.75;;;14.26
6550;BMP280;15142;48.888;9.134;2023-03-23T01:39:54;97420.31;;;14.30
6550;BMP280;15142;48.888;9.134;2023-03-23T01:42:22;97409.22;;;14.37
6550;BMP280;15142;48.888;9.134;2023-03-23T01:45:22;97398.53;;;14.35
6550;BMP280;15142;48.888;9.134;2023-03-23T01:47:55;97396.75;;;14.28
6550;BMP280;15142;48.888;9.134;2023-03-23T01:50:24;97400.72;;;14.25
6550;BMP280;15142;48.888;9.134;2023-03-23T01:52:53;97393.94;;;14.21
6550;BMP280;15142;48.888;9.134;2023-03-23T01:55:24;97393.38;;;14.15
6550;BMP280;15142;48.888;9.134;2023-03-23T01:57:53;97396.25;;;14.14
6550;BMP280;15142;48.888;9.134;2023-03-23T02:00:22;97394.75;;;14.13
6550;BMP280;15142;48.888;9.134;2023-03-23T02:02:54;97394.59;;;14.09
6550;BMP280;15142;48.888;9.134;2023-03-23T02:05:27;97393.59;;;14.02
6550;BMP280;15142;48.888;9.134;2023-03-23T02:07:59;97390.56;;;14.00
6550;BMP280;15142;48.888;9.134;2023-03-23T02:10:32;97385.75;;;13.99
6550;BMP280;15142;48.888;9.134;2023-03-23T02:13:12;97387.84;;;14.05
6550;BMP280;15142;48.888;9.134;2023-03-23T02:15:55;97382.72;;;14.05
6550;BMP280;15142;48.888;9.134;2023-03-23T02:21:14;97385.91;;;14.02
6550;BMP280;15142;48.888;9.134;2023-03-23T02:23:54;97383.97;;;13.99
6550;BMP280;15142;48.888;9.134;2023-03-23T02:29:25;97387.75;;;13.93
6550;BMP280;15142;48.888;9.134;2023-03-23T02:32:06;97378.03;;;13.99
6550;BMP280;15142;48.888;9.134;2023-03-23T02:34:41;97374.16;;;14.01
6550;BMP280;15142;48.888;9.134;2023-03-23T02:37:11;97370.06;;;14.00
6550;BMP280;15142;48.888;9.134;2023-03-23T02:39:44;97357.44;;;13.95
6550;BMP280;15142;48.888;9.134;2023-03-23T02:42:16;97351.91;;;13.85
6550;BMP280;15142;48.888;9.134;2023-03-23T02:44:45;97358.66;;;13.89
6550;BMP280;15142;48.888;9.134;2023-03-23T02:47:17;97352.66;;;14.05
6550;BMP280;15142;48.888;9.134;2023-03-23T02:49:49;97355.03;;;14.10
6550;BMP280;15142;48.888;9.134;2023-03-23T02:52:20;97346.28;;;14.11
6550;BMP280;15142;48.888;9.134;2023-03-23T02:54:50;97332.03;;;14.02
6550;BMP280;15142;48.888;9.134;2023-03-23T02:57:19;97327.50;;;13.99
6550;BMP280;15142;48.888;9.134;2023-03-23T02:59:46;97327.50;;;13.99
6550;BMP280;15142;48.888;9.134;2023-03-23T03:02:15;97331.31;;;13.93
6550;BMP280;15142;48.888;9.134;2023-03-23T03:04:48;97320.44;;;13.96
6550;BMP280;15142;48.888;9.134;2023-03-23T03:10:02;97333.88;;;13.93
6550;BMP280;15142;48.888;9.134;2023-03-23T03:15:06;97333.09;;;13.93
6550;BMP280;15142;48.888;9.134;2023-03-23T03:17:39;97337.66;;;13.96
6550;BMP280;15142;48.888;9.134;2023-03-23T03:20:10;97324.25;;;13.90
6550;BMP280;15142;48.888;9.134;2023-03-23T03:22:42;97335.13;;;13.87
6550;BMP280;15142;48.888;9.134;2023-03-23T03:25:11;97329.13;;;13.83
6550;BMP280;15142;48.888;9.134;2023-03-23T03:27:40;97318.09;;;13.83
6550;BMP280;15142;48.888;9.134;2023-03-23T03:30:25;97316.59;;;13.82
6550;BMP280;15142;48.888;9.134;2023-03-23T03:32:53;97322.91;;;13.84
6550;BMP280;15142;48.888;9.134;2023-03-23T03:35:24;97320.47;;;13.88
6550;BMP280;15142;48.888;9.134;2023-03-23T03:37:51;97325.06;;;14.02
6550;BMP280;15142;48.888;9.134;2023-03-23T03:40:20;97328.91;;;14.17
6550;BMP280;15142;48.888;9.134;2023-03-23T03:42:50;97326.88;;;14.22
6550;BMP280;15142;48.888;9.134;2023-03-23T03:45:18;97321.38;;;14.32
6550;BMP280;15142;48.888;9.134;2023-03-23T03:47:46;97323.34;;;14.35
6550;BMP280;15142;48.888;9.134;2023-03-23T03:50:14;97307.44;;;14.41
6550;BMP280;15142;48.888;9.134;2023-03-23T03:52:43;97315.56;;;14.43
6550;BMP280;15142;48.888;9.134;2023-03-23T03:55:11;97311.50;;;14.42
6550;BMP280;15142;48.888;9.134;2023-03-23T03:57:41;97309.09;;;14.37
6550;BMP280;15142;48.888;9.134;2023-03-23T04:00:44;97315.25;;;14.45
6550;BMP280;15142;48.888;9.134;2023-03-23T04:03:13;97311.91;;;14.44
6550;BMP280;15142;48.888;9.134;2023-03-23T04:05:49;97312.75;;;14.36
6550;BMP280;15142;48.888;9.134;2023-03-23T04:08:18;97320.69;;;14.43
6550;BMP280;15142;48.888;9.134;2023-03-23T04:10:44;97314.47;;;14.44
6550;BMP280;15142;48.888;9.134;2023-03-23T04:13:13;97316.88;;;14.49
6550;BMP280;15142;48.888;9.134;2023-03-23T04:15:59;97321.88;;;14.46
6550;BMP280;15142;48.888;9.134;2023-03-23T04:18:26;97332.03;;;14.42
6550;BMP280;15142;48.888;9.134;2023-03-23T04:20:54;97329.66;;;14.37
6550;BMP280;15142;48.888;9.134;2023-03-23T04:23:27;97325.03;;;14.31
6550;BMP280;15142;48.888;9.134;2023-03-23T04:25:56;97328.13;;;14.25
6550;BMP280;15142;48.888;9.134;2023-03-23T04:28:27;97329.06;;;14.32
6550;BMP280;15142;48.888;9.134;2023-03-23T04:30:59;97323.22;;;14.31
6550;BMP280;15142;48.888;9.134;2023-03-23T04:33:29;97321.69;;;14.30
6550;BMP280;15142;48.888;9.134;2023-03-23T04:35:59;97314.31;;;14.29
6550;BMP280;15142;48.888;9.134;2023-03-23T04:41:01;97307.69;;;14.08
6550;BMP280;15142;48.888;9.134;2023-03-23T04:43:40;97323.78;;;14.17
6550;BMP280;15142;48.888;9.134;2023-03-23T04:46:27;97316.38;;;14.15
6550;BMP280;15142;48.888;9.134;2023-03-23T04:48:59;97326.44;;;14.20
6550;BMP280;15142;48.888;9.134;2023-03-23T04:51:31;97318.03;;;14.20
6550;BMP280;15142;48.888;9.134;2023-03-23T04:53:59;97327.66;;;14.23
6550;BMP280;15142;48.888;9.134;2023-03-23T04:56:29;97327.09;;;14.17
6550;BMP280;15142;48.888;9.134;2023-03-23T04:58:59;97328.28;;;14.20
6550;BMP280;15142;48.888;9.134;2023-03-23T05:01:33;97335.81;;;14.25
6550;BMP280;15142;48.888;9.134;2023-03-23T05:03:59;97322.03;;;14.29
6550;BMP280;15142;48.888;9.134;2023-03-23T05:06:28;97323.53;;;14.30
6550;BMP280;15142;48.888;9.134;2023-03-23T05:08:59;97327.25;;;14.32
6550;BMP280;15142;48.888;9.134;2023-03-23T05:11:26;97321.38;;;14.32
6550;BMP280;15142;48.888;9.134;2023-03-23T05:13:55;97315.72;;;14.38
6550;BMP280;15142;48.888;9.134;2023-03-23T05:16:22;97309.25;;;14.41
6550;BMP280;15142;48.888;9.134;2023-03-23T05:18:49;97319.63;;;14.44
6550;BMP280;15142;48.888;9.134;2023-03-23T05:21:17;97322.53;;;14.43
6550;BMP280;15142;48.888;9.134;2023-03-23T05:23:49;97324.56;;;14.49
6550;BMP280;15142;48.888;9.134;2023-03-23T05:26:20;97326.94;;;14.54
6550;BMP280;15142;48.888;9.134;2023-03-23T05:28:49;97318.06;;;14.52
6550;BMP280;15142;48.888;9.134;2023-03-23T05:31:23;97314.75;;;14.51
6550;BMP280;15142;48.888;9.134;2023-03-23T05:33:51;97319.88;;;14.51
6550;BMP280;15142;48.888;9.134;2023-03-23T05:36:28;97326.94;;;14.54
6550;BMP280;15142;48.888;9.134;2023-03-23T05:38:59;97316.88;;;14.49
6550;BMP280;15142;48.888;9.134;2023-03-23T05:41:39;97320.19;;;14.50
6550;BMP280;15142;48.888;9.134;2023-03-23T05:44:06;97311.97;;;14.56
6550;BMP280;15142;48.888;9.134;2023-03-23T05:46:46;97325.06;;;14.63
6550;BMP280;15142;48.888;9.134;2023-03-23T05:49:14;97319.47;;;14.61
6550;BMP280;15142;48.888;9.134;2023-03-23T05:51:42;97317.97;;;14.60
6550;BMP280;15142;48.888;9.134;2023-03-23T05:54:09;97330.38;;;14.58
6550;BMP280;15142;48.888;9.134;2023-03-23T05:56:38;97332.84;;;14.55
6550;BMP280;15142;48.888;9.134;2023-03-23T05:59:40;97329.06;;;14.52
6550;BMP280;15142;48.888;9.134;2023-03-23T06:02:14;97335.47;;;14.46
6550;BMP280;15142;48.888;9.134;2023-03-23T06:04:41;97341.28;;;14.55
6550;BMP280;15142;48.888;9.134;2023-03-23T06:07:26;97336.03;;;14.52
6550;BMP280;15142;48.888;9.134;2023-03-23T06:09:58;97343.16;;;14.46
6550;BMP280;15142;48.888;9.134;2023-03-23T06:12:36;97344.88;;;14.42
6550;BMP280;15142;48.888;9.134;2023-03-23T06:15:21;97363.63;;;14.43
6550;BMP280;15142;48.888;9.134;2023-03-23T06:18:01;97369.34;;;14.40
6550;BMP280;15142;48.888;9.134;2023-03-23T06:20:36;97372.03;;;14.43
6550;BMP280;15142;48.888;9.134;2023-03-23T06:24:30;97372.19;;;14.47
6550;BMP280;15142;48.888;9.134;2023-03-23T06:28:05;97371.03;;;14.36
6550;BMP280;15142;48.888;9.134;2023-03-23T06:30:36;97379.50;;;14.36
6550;BMP280;15142;48.888;9.134;2023-03-23T06:33:03;97376.81;;;14.33
6550;BMP280;15142;48.888;9.134;2023-03-23T06:36:05;97380.94;;;14.26
6550;BMP280;15142;48.888;9.134;2023-03-23T06:38:46;97388.81;;;14.21
6550;BMP280;15142;48.888;9.134;2023-03-23T06:41:36;97388.38;;;14.19
6550;BMP280;15142;48.888;9.134;2023-03-23T06:44:03;97397.03;;;14.06
6550;BMP280;15142;48.888;9.134;2023-03-23T06:46:31;97396.16;;;14.02
6550;BMP280;15142;48.888;9.134;2023-03-23T06:49:17;97401.50;;;14.17
6550;BMP280;15142;48.888;9.134;2023-03-23T06:51:50;97399.13;;;14.32
6550;BMP280;15142;48.888;9.134;2023-03-23T06:54:17;97404.09;;;14.37
6550;BMP280;15142;48.888;9.134;2023-03-23T06:56:45;97402.44;;;14.41
6550;BMP280;15142;48.888;9.134;2023-03-23T06:59:13;97404.53;;;14.39
6550;BMP280;15142;48.888;9.134;2023-03-23T07:01:39;97405.59;;;14.38
6550;BMP280;15142;48.888;9.134;2023-03-23T07:04:07;97406.53;;;14.34
6550;BMP280;15142;48.888;9.134;2023-03-23T07:06:46;97398.38;;;14.32
6550;BMP280;15142;48.888;9.134;2023-03-23T07:09:13;97407.47;;;14.30
6550;BMP280;15142;48.888;9.134;2023-03-23T07:11:40;97406.41;;;14.30
6550;BMP280;15142;48.888;9.134;2023-03-23T07:14:20;97418.44;;;14.38
6550;BMP280;15142;48.888;9.134;2023-03-23T07:16:48;97423.91;;;14.37
6550;BMP280;15142;48.888;9.134;2023-03-23T07:19:15;97428.47;;;14.31
6550;BMP280;15142;48.888;9.134;2023-03-23T07:21:42;97428.22;;;14.25
6550;BMP280;15142;48.888;9.134;2023-03-23T07:24:10;97439.31;;;14.29
6550;BMP280;15142;48.888;9.134;2023-03-23T07:26:52;97438.28;;;14.30
6550;BMP280;15142;48.888;9.134;2023-03-23T07:29:18;97437.09;;;14.27
6550;BMP280;15142;48.888;9.134;2023-03-23T07:31:51;97450.06;;;14.30
6550;BMP280;15142;48.888;9.134;2023-03-23T07:34:18;97457.59;;;14.35
6550;BMP280;15142;48.888;9.134;2023-03-23T07:36:57;97459.97;;;14.40
6550;BMP280;15142;48.888;9.134;2023-03-23T07:39:25;97467.28;;;14.50
6550;BMP280;15142;48.888;9.134;2023-03-23T07:41:54;97464.63;;;14.47
6550;BMP280;15142;48.888;9.134;2023-03-23T07:44:25;97469.13;;;14.50
6550;BMP280;15142;48.888;9.134;2023-03-23T07:46:53;97474.03;;;14.63
6550;BMP280;15142;48.888;9.134;2023-03-23T07:49:25;97474.97;;;14.79
6550;BMP280;15142;48.888;9.134;2023-03-23T07:52:03;97477.34;;;15.04
6550;BMP280;15142;48.888;9.134;2023-03-23T07:54:30;97468.94;;;15.15
6550;BMP280;15142;48.888;9.134;2023-03-23T07:57:02;97458.03;;;15.18
6550;BMP280;15142;48.888;9.134;2023-03-23T07:59:33;97468.19;;;15.15
6550;BMP280;15142;48.888;9.134;2023-03-23T08:04:42;97476.28;;;15.05
6550;BMP280;15142;48.888;9.134;2023-03-23T08:07:25;97477.59;;;15.11
6550;BMP280;15142;48.888;9.134;2023-03-23T08:10:02;97485.66;;;15.21
6550;BMP280;15142;48.888;9.134;2023-03-23T08:12:39;97482.88;;;15.14
6550;BMP280;15142;48.888;9.134;2023-03-23T08:15:25;97490.56;;;15.14
6550;BMP280;15142;48.888;9.134;2023-03-23T08:17:55;97484.06;;;15.16
6550;BMP280;15142;48.888;9.134;2023-03-23T08:20:27;97494.69;;;15.27
6550;BMP280;15142;48.888;9.134;2023-03-23T08:23:00;97494.13;;;15.21
6550;BMP280;15142;48.888;9.134;2023-03-23T08:25:47;97492.44;;;15.25
6550;BMP280;15142;48.888;9.134;2023-03-23T08:28:26;97503.59;;;15.29
6550;BMP280;15142;48.888;9.134;2023-03-23T08:30:58;97493.53;;;15.24
6550;BMP280;15142;48.888;9.134;2023-03-23T08:33:38;97497.16;;;15.23
6550;BMP280;15142;48.888;9.134;2023-03-23T08:36:19;97494.25;;;15.25
6550;BMP280;15142;48.888;9.134;2023-03-23T08:39:05;97490.59;;;15.26
6550;BMP280;15142;48.888;9.134;2023-03-23T08:41:56;97499.88;;;15.07
6550;BMP280;15142;48.888;9.134;2023-03-23T08:44:26;97501.00;;;14.97
6550;BMP280;15142;48.888;9.134;2023-03-23T08:47:11;97488.69;;;14.83
6550;BMP280;15142;48.888;9.134;2023-03-23T08:49:58;97503.31;;;14.90
6550;BMP280;15142;48.888;9.134;2023-03-23T08:52:37;97506.34;;;14.92
6550;BMP280;15142;48.888;9.134;2023-03-23T08:55:16;97502.16;;;14.80
6550;BMP280;15142;48.888;9.134;2023-03-23T08:57:53;97528.63;;;14.80
6550;BMP280;15142;48.888;9.134;2023-03-23T09:00:38;97523.59;;;14.84
6550;BMP280;15142;48.888;9.134;2023-03-23T09:03:12;97520.84;;;14.88
6550;BMP280;15142;48.888;9.134;2023-03-23T09:06:06;97519.41;;;14.99
6550;BMP280;15142;48.888;9.134;2023-03-23T09:08:43;97519.22;;;15.04
6550;BMP280;15142;48.888;9.134;2023-03-23T09:11:11;97530.41;;;15.08
6550;BMP280;15142;48.888;9.134;2023-03-23T09:13:38;97521.31;;;15.11
6550;BMP280;15142;48.888;9.134;2023-03-23T09:16:06;97523.38;;;15.17
6550;BMP280;15142;48.888;9.134;2023-03-23T09:18:34;97536.13;;;15.25
6550;BMP280;15142;48.888;9.134;2023-03-23T09:21:01;97536.59;;;15.27
6550;BMP280;15142;48.888;9.134;2023-03-23T09:23:28;97551.72;;;15.29
6550;BMP280;15142;48.888;9.134;2023-03-23T09:25:56;97542.91;;;15.30
6550;BMP280;15142;48.888;9.134;2023-03-23T09:28:23;97556.97;;;15.32
6550;BMP280;15142;48.888;9.134;2023-03-23T09:30:50;97560.09;;;15.38
6550;BMP280;15142;48.888;9.134;2023-03-23T09:33:16;97556.66;;;15.34
6550;BMP280;15142;48.888;9.134;2023-03-23T09:35:43;97560.75;;;15.35
6550;BMP280;15142;48.888;9.134;2023-03-23T09:38:10;97557.06;;;15.36
6550;BMP280;15142;48.888;9.134;2023-03-23T09:40:44;97559.13;;;15.30
6550;BMP280;15142;48.888;9.134;2023-03-23T09:43:24;97558.19;;;15.35
6550;BMP280;15142;48.888;9.134;2023-03-23T09:46:00;97557.84;;;15.36
6550;BMP280;15142;48.888;9.134;2023-03-23T09:48:35;97553.69;;;15.43
6550;BMP280;15142;48.888;9.134;2023-03-23T09:51:09;97563.34;;;15.67
6550;BMP280;15142;48.888;9.134;2023-03-23T09:53:40;97569.19;;;15.67
6550;BMP280;15142;48.888;9.134;2023-03-23T09:56:13;97562.69;;;15.70
6550;BMP280;15142;48.888;9.134;2023-03-23T09:58:46;97567.47;;;15.59
6550;BMP280;15142;48.888;9.134;2023-03-23T10:01:19;97571.88;;;15.59
6550;BMP280;15142;48.888;9.134;2023-03-23T10:03:47;97570.50;;;15.61
6550;BMP280;15142;48.888;9.134;2023-03-23T10:06:15;97571.81;;;15.79
6550;BMP280;15142;48.888;9.134;2023-03-23T10:08:45;97585.09;;;15.69
6550;BMP280;15142;48.888;9.134;2023-03-23T10:11:16;97577.63;;;15.76
6550;BMP280;15142;48.888;9.134;2023-03-23T10:14:06;97583.78;;;15.95
6550;BMP280;15142;48.888;9.134;2023-03-23T10:16:39;97588.69;;;15.88
6550;BMP280;15142;48.888;9.134;2023-03-23T10:19:10;97584.03;;;16.02
6550;BMP280;15142;48.888;9.134;2023-03-23T10:21:41;97591.25;;;15.88
6550;BMP280;15142;48.888;9.134;2023-03-23T10:24:10;97587.66;;;16.01
6550;BMP280;15142;48.888;9.134;2023-03-23T10:26:48;97593.88;;;16.00
6550;BMP280;15142;48.888;9.134;2023-03-23T10:29:22;97604.75;;;16.17
6550;BMP280;15142;48.888;9.134;2023-03-23T10:31:55;97591.38;;;16.35
6550;BMP280;15142;48.888;9.134;2023-03-23T10:34:28;97595.75;;;16.58
6550;BMP280;15142;48.888;9.134;2023-03-23T10:37:02;97587.16;;;16.43
6550;BMP280;15142;48.888;9.134;2023-03-23T10:39:38;97587.13;;;16.19
6550;BMP280;15142;48.888;9.134;2023-03-23T10:42:08;97594.00;;;16.15
6550;BMP280;15142;48.888;9.134;2023-03-23T10:44:36;97596.03;;;15.66
6550;BMP280;15142;48.888;9.134;2023-03-23T10:47:05;97592.31;;;15.55
6550;BMP280;15142;48.888;9.134;2023-03-23T10:51:09;97601.38;;;15.73
6550;BMP280;15142;48.888;9.134;2023-03-23T10:53:42;97592.56;;;15.82
6550;BMP280;15142;48.888;9.134;2023-03-23T10:56:21;97584.63;;;15.67
6550;BMP280;15142;48.888;9.134;2023-03-23T10:58:49;97590.97;;;16.01
6550;BMP280;15142;48.888;9.134;2023-03-23T11:01:18;97590.63;;;15.91
6550;BMP280;15142;48.888;9.134;2023-03-23T11:03:47;97589.78;;;15.99
6550;BMP280;15142;48.888;9.134;2023-03-23T11:06:22;97584.72;;;15.91
6550;BMP280;15142;48.888;9.134;2023-03-23T11:08:52;97576.38;;;15.82
6550;BMP280;15142;48.888;9.134;2023-03-23T11:11:21;97572.91;;;15.78
6550;BMP280;15142;48.888;9.134;2023-03-23T11:18:35;97581.81;;;15.48
6550;BMP280;15142;48.888;9.134;2023-03-23T11:21:07;97580.94;;;15.44
6550;BMP280;15142;48.888;9.134;2023-03-23T11:23:39;97577.28;;;15.45
6550;BMP280;15142;48.888;9.134;2023-03-23T11:26:14;97570.38;;;15.38
6550;BMP280;15142;48.888;9.134;2023-03-23T11:28:46;97578.78;;;15.46
6550;BMP280;15142;48.888;9.134;2023-03-23T11:31:16;97576.41;;;15.73
6550;BMP280;15142;48.888;9.134;2023-03-23T11:33:52;97572.94;;;16.13
6550;BMP280;15142;48.888;9.134;2023-03-23T11:36:29;97569.47;;;16.29
6550;BMP280;15142;48.888;9.134;2023-03-23T11:38:59;97569.97;;;16.11
6550;BMP280;15142;48.888;9.134;2023-03-23T11:41:34;97559.69;;;16.35
6550;BMP280;15142;48.888;9.134;2023-03-23T11:44:09;97570.22;;;16.42
6550;BMP280;15142;48.888;9.134;2023-03-23T11:46:45;97572.03;;;16.41
6550;BMP280;15142;48.888;9.134;2023-03-23T11:49:28;97569.00;;;16.39
6550;BMP280;15142;48.888;9.134;2023-03-23T11:52:04;97562.69;;;16.49
6550;BMP280;15142;48.888;9.134;2023-03-23T11:54:40;97570.63;;;16.44
6550;BMP280;15142;48.888;9.134;2023-03-23T11:57:11;97572.25;;;16.72
6550;BMP280;15142;48.888;9.134;2023-03-23T11:59:41;97572.34;;;16.63
6550;BMP280;15142;48.888;9.134;2023-03-23T12:02:30;97575.81;;;16.56
6550;BMP280;15142;48.888;9.134;2023-03-23T12:05:30;97572.97;;;16.49
6550;BMP280;15142;48.888;9.134;2023-03-23T12:08:18;97566.09;;;16.29
6550;BMP280;15142;48.888;9.134;2023-03-23T12:10:56;97565.38;;;16.28
6550;BMP280;15142;48.888;9.134;2023-03-23T12:13:36;97575.78;;;16.44
6550;BMP280;15142;48.888;9.134;2023-03-23T12:16:22;97571.94;;;16.26
6550;BMP280;15142;48.888;9.134;2023-03-23T12:18:59;97568.81;;;16.32
6550;BMP280;15142;48.888;9.134;2023-03-23T12:21:38;97565.25;;;16.49
6550;BMP280;15142;48.888;9.134;2023-03-23T12:24:15;97569.75;;;16.28
6550;BMP280;15142;48.888;9.134;2023-03-23T12:26:56;97560.41;;;16.00
6550;BMP280;15142;48.888;9.134;2023-03-23T12:29:49;97562.91;;;16.20
6550;BMP280;15142;48.888;9.134;2023-03-23T12:32:30;97557.31;;;16.77
6550;BMP280;15142;48.888;9.134;2023-03-23T12:35:11;97554.22;;;16.99
6550;BMP280;15142;48.888;9.134;2023-03-23T12:37:58;97553.78;;;17.09
6550;BMP280;15142;48.888;9.134;2023-03-23T12:40:39;97547.19;;;16.96
6550;BMP280;15142;48.888;9.134;2023-03-23T12:43:13;97543.09;;;17.22
6550;BMP280;15142;48.888;9.134;2023-03-23T12:45:55;97539.22;;;17.28
6550;BMP280;15142;48.888;9.134;2023-03-23T12:48:29;97546.44;;;16.83
6550;BMP280;15142;48.888;9.134;2023-03-23T12:51:09;97537.31;;;16.74
6550;BMP280;15142;48.888;9.134;2023-03-23T12:56:16;97540.25;;;16.61
6550;BMP280;15142;48.888;9.134;2023-03-23T12:58:47;97539.59;;;16.76
6550;BMP280;15142;48.888;9.134;2023-03-23T13:01:19;97536.53;;;16.97
6550;BMP280;15142;48.888;9.134;2023-03-23T13:03:52;97522.84;;;16.82
6550;BMP280;15142;48.888;9.134;2023-03-23T13:06:27;97520.28;;;16.97
6550;BMP280;15142;48.888;9.134;2023-03-23T13:09:01;97521.59;;;16.91
6550;BMP280;15142;48.888;9.134;2023-03-23T13:11:36;97526.94;;;17.25
6550;BMP280;15142;48.888;9.134;2023-03-23T13:14:18;97517.28;;;17.49
6550;BMP280;15142;48.888;9.134;2023-03-23T13:16:57;97512.47;;;17.63
6550;BMP280;15142;48.888;9.134;2023-03-23T13:19:31;97505.72;;;17.43
6550;BMP280;15142;48.888;9.134;2023-03-23T13:22:06;97511.03;;;17.08
6550;BMP280;15142;48.888;9.134;2023-03-23T13:24:38;97500.72;;;17.08
6550;BMP280;15142;48.888;9.134;2023-03-23T13:27:10;97491.59;;;16.98
6550;BMP280;15142;48.888;9.134;2023-03-23T13:29:44;97499.69;;;17.39
6550;BMP280;15142;48.888;9.134;2023-03-23T13:32:16;97501.66;;;17.15
6550;BMP280;15142;48.888;9.134;2023-03-23T13:34:46;97495.72;;;17.14
6550;BMP280;15142;48.888;9.134;2023-03-23T13:37:24;97489.63;;;17.19
6550;BMP280;15142;48.888;9.134;2023-03-23T13:39:55;97490.94;;;17.28
6550;BMP280;15142;48.888;9.134;2023-03-23T13:42:28;97487.78;;;17.19
6550;BMP280;15142;48.888;9.134;2023-03-23T13:45:19;97480.03;;;17.35
6550;BMP280;15142;48.888;9.134;2023-03-23T13:47:49;97490.00;;;17.06
6550;BMP280;15142;48.888;9.134;2023-03-23T13:50:28;97485.75;;;17.13
6550;BMP280;15142;48.888;9.134;2023-03-23T13:52:59;97472.69;;;16.79
6550;BMP280;15142;48.888;9.134;2023-03-23T13:55:40;97460.59;;;16.56
6550;BMP280;15142;48.888;9.134;2023-03-23T13:58:22;97466.69;;;16.75
6550;BMP280;15142;48.888;9.134;2023-03-23T14:01:13;97467.25;;;16.96
6550;BMP280;15142;48.888;9.134;2023-03-23T14:03:47;97465.63;;;17.18
6550;BMP280;15142;48.888;9.134;2023-03-23T14:06:19;97458.28;;;17.20
6550;BMP280;15142;48.888;9.134;2023-03-23T14:09:21;97461.66;;;17.21
6550;BMP280;15142;48.888;9.134;2023-03-23T14:11:57;97464.13;;;17.17
6550;BMP280;15142;48.888;9.134;2023-03-23T14:14:39;97446.91;;;17.37
6550;BMP280;15142;48.888;9.134;2023-03-23T14:17:13;97441.94;;;17.43
6550;BMP280;15142;48.888;9.134;2023-03-23T14:19:46;97424.38;;;17.49
6550;BMP280;15142;48.888;9.134;2023-03-23T14:22:18;97418.81;;;17.47
6550;BMP280;15142;48.888;9.134;2023-03-23T14:24:48;97414.56;;;17.39
6550;BMP280;15142;48.888;9.134;2023-03-23T14:27:19;97433.72;;;17.38
6550;BMP280;15142;48.888;9.134;2023-03-23T14:30:00;97427.72;;;17.34
6550;BMP280;15142;48.888;9.134;2023-03-23T14:32:31;97428.38;;;17.31
6550;BMP280;15142;48.888;9.134;2023-03-23T14:35:04;97424.53;;;17.25
6550;BMP280;15142;48.888;9.134;2023-03-23T14:37:34;97426.28;;;17.21
6550;BMP280;15142;48.888;9.134;2023-03-23T14:40:05;97432.28;;;17.25
6550;BMP280;15142;48.888;9.134;2023-03-23T14:42:35;97429.69;;;17.25
6550;BMP280;15142;48.888;9.134;2023-03-23T14:45:12;97425.88;;;17.19
6550;BMP280;15142;48.888;9.134;2023-03-23T14:47:44;97430.69;;;17.21
6550;BMP280;15142;48.888;9.134;2023-03-23T14:50:27;97431.44;;;17.21
6550;BMP280;15142;48.888;9.134;2023-03-23T14:52:59;97436.34;;;17.26
6550;BMP280;15142;48.888;9.134;2023-03-23T14:55:30;97436.25;;;17.23
6550;BMP280;15142;48.888;9.134;2023-03-23T14:58:06;97437.03;;;17.23
6550;BMP280;15142;48.888;9.134;2023-03-23T15:00:41;97437.44;;;17.25
6550;BMP280;15142;48.888;9.134;2023-03-23T15:03:13;97432.34;;;17.29
6550;BMP280;15142;48.888;9.134;2023-03-23T15:05:45;97428.59;;;17.26
6550;BMP280;15142;48.888;9.134;2023-03-23T15:08:19;97437.19;;;17.30
6550;BMP280;15142;48.888;9.134;2023-03-23T15:10:53;97433.28;;;17.36
6550;BMP280;15142;48.888;9.134;2023-03-23T15:13:22;97430.38;;;17.38
6550;BMP280;15142;48.888;9.134;2023-03-23T15:16:01;97428.38;;;17.31
6550;BMP280;15142;48.888;9.134;2023-03-23T15:18:33;97433.53;;;17.31
6550;BMP280;15142;48.888;9.134;2023-03-23T15:21:11;97431.19;;;17.26
6550;BMP280;15142;48.888;9.134;2023-03-23T15:23:43;97429.69;;;17.25